logo
Games tagged Multiple Endings
# Game Release date
Price
Score rank
(Userscore / Metascore)
Owners
Players
Playtime (Median)
Developer(s)
Publisher(s)
1 The Witcher 3: Wild Hunt May 18, 2015 $39.99N/A (N/A/93%)10,000,000 .. 20,000,0000%00:00 (00:00)CD PROJEKT REDCD PROJEKT RED
2 Undertale Sep 15, 2015 $9.99N/A (N/A/92%)5,000,000 .. 10,000,0000%00:00 (00:00)tobyfoxtobyfox
3 Dishonored Oct 8, 2012 $9.99N/A (N/A/91%)2,000,000 .. 5,000,0000%00:00 (00:00)Arkane StudiosBethesda Softworks
4 Dragon Age: Origins - Ultimate Edition Oct 26, 2010 $2.99N/A (N/A/91%)1,000,000 .. 2,000,0000%00:00 (00:00)BioWareElectronic Arts
5 Dragon Age: Origins Nov 6, 2009 $2.99N/A (N/A/91%)500,000 .. 1,000,0000%00:00 (00:00)BioWareElectronic Arts
6 Return of the Obra Dinn Oct 18, 2018 $19.99N/A (N/A/89%)500,000 .. 1,000,0000%00:00 (00:00)Lucas Pope3909
7 Rez Infinite Aug 9, 2017 $24.99N/A (N/A/89%)50,000 .. 100,0000%00:00 (00:00)Monstars Inc., ResonairEnhance
8 Fallout: A Post Nuclear Role Playing Game Sep 30, 1997 $9.99N/A (N/A/89%)2,000,000 .. 5,000,0000%00:00 (00:00)Interplay Inc.Bethesda Softworks
9 The Stanley Parable Oct 17, 2013 $14.99N/A (N/A/88%)2,000,000 .. 5,000,0000%00:00 (00:00)Galactic CafeGalactic Cafe
10 The Witcher 2: Assassins of Kings Enhanced Edition Apr 16, 2012 $19.99N/A (N/A/88%)2,000,000 .. 5,000,0000%00:00 (00:00)CD PROJEKT REDCD PROJEKT RED, 1C-SoftClub
11 Unavowed Aug 8, 2018 $14.99N/A (N/A/87%)100,000 .. 200,0000%00:00 (00:00)Wadjet Eye GamesWadjet Eye Games
12 Hollow Knight Feb 24, 2017 $14.99N/A (N/A/87%)10,000,000 .. 20,000,0000%00:00 (00:00)Team CherryTeam Cherry
13 STEINS;GATE Sep 8, 2016 $29.99N/A (N/A/87%)500,000 .. 1,000,0000%00:00 (00:00)MAGES. Inc.Spike Chunsoft Co., Ltd.
14 INSIDE Jul 7, 2016 $19.99N/A (N/A/87%)2,000,000 .. 5,000,0000%00:00 (00:00)PlaydeadPlaydead
15 Zero Escape: The Nonary Games Mar 24, 2017 $29.99N/A (N/A/86%)200,000 .. 500,0000%00:00 (00:00)Spike Chunsoft Co., Ltd.Spike Chunsoft Co., Ltd.
16 The Witcher: Enhanced Edition Director's Cut Sep 19, 2008 $9.99N/A (N/A/86%)2,000,000 .. 5,000,0000%00:00 (00:00)CD PROJEKT REDCD PROJEKT RED, 1C-SoftClub
17 The Talos Principle Dec 11, 2014 $29.99N/A (N/A/85%)1,000,000 .. 2,000,0000%00:00 (00:00)CroteamDevolver Digital, Croteam
18 Papers, Please Aug 8, 2013 $9.99N/A (N/A/85%)2,000,000 .. 5,000,0000%00:00 (00:00)Lucas Pope3909
19 80 Days Sep 28, 2015 $12.99N/A (N/A/84%)100,000 .. 200,0000%00:00 (00:00)inkle Ltd, Cape Guy Ltdinkle Ltd
20 CLANNAD Apr 28, 2004 $44.99N/A (N/A/83%)100,000 .. 200,0000%00:00 (00:00)VisualArts/KeySekai Project
21 Pyre Jul 25, 2017 $19.99N/A (N/A/82%)500,000 .. 1,000,0000%00:00 (00:00)Supergiant GamesSupergiant Games
22 Dragon Age: Origins Awakening Mar 16, 2010 $2.99N/A (N/A/82%)100,000 .. 200,0000%00:00 (00:00)BioWareElectronic Arts
23 Yuppie Psycho: Executive Edition Apr 25, 2019 $16.99N/A (N/A/81%)500,000 .. 1,000,0000%00:00 (00:00)Baroque DecayNeon Doctrine
24 Anno 1800 Apr 2019 $59.99N/A (N/A/81%)500,000 .. 1,000,0000%00:00 (00:00)Ubisoft MainzUbisoft
25 The Hex Oct 16, 2018 $9.99N/A (N/A/81%)100,000 .. 200,0000%00:00 (00:00)Daniel Mullins GamesDaniel Mullins Games
26 Emily is Away Too May 26, 2017 $4.99N/A (N/A/81%)200,000 .. 500,0000%00:00 (00:00)Kyle SeeleyKyle Seeley
27 The Age of Decadence Oct 14, 2015 $14.99N/A (N/A/81%)200,000 .. 500,0000%00:00 (00:00)Iron Tower StudioIron Tower Studio
28 Jade Empire: Special Edition Feb 27, 2007 $14.99N/A (N/A/81%)200,000 .. 500,0000%00:00 (00:00)BioWareBioWare, Electronic Arts
29 Catherine Classic Jan 10, 2019 $19.99N/A (N/A/80%)200,000 .. 500,0000%00:00 (00:00)ATLUSSEGA
30 OneShot Dec 2016 $9.99N/A (N/A/80%)500,000 .. 1,000,0000%00:00 (00:00)Future Cat LLCKOMODO
31 1979 Revolution: Black Friday Apr 4, 2016 $9.99N/A (N/A/80%)50,000 .. 100,0000%00:00 (00:00)iNK Stories, N-Fusion InteractiveiNK Stories
32 Oxenfree Jan 14, 2016 $9.99N/A (N/A/80%)500,000 .. 1,000,0000%00:00 (00:00)Night School StudioNight School Studio
33 2064: Read Only Memories Oct 6, 2015 $9.99N/A (N/A/80%)200,000 .. 500,0000%00:00 (00:00)MidBoss, LLC.Chorus Worldwide Games
34 Semblance Jul 24, 2018 $9.99N/A (N/A/79%)0 .. 20,0000%00:00 (00:00)NyamakopGood Shepherd Entertainment
35 Late Shift Apr 18, 2017 $14.99N/A (N/A/79%)200,000 .. 500,0000%00:00 (00:00)CtrlMovieWales Interactive
36 Waking Mars Dec 13, 2012 $9.99N/A (N/A/79%)200,000 .. 500,0000%00:00 (00:00)Tiger StyleTiger Style
37 The Infectious Madness of Doctor Dekker May 19, 2017 $8.99N/A (N/A/78%)20,000 .. 50,0000%00:00 (00:00)D'Avekki Studios LtdD'Avekki Studios Ltd
38 Zero Escape: Zero Time Dilemma Jun 29, 2016 $19.99N/A (N/A/78%)1,000,000 .. 2,000,0000%00:00 (00:00)Spike Chunsoft Co., Ltd.Spike Chunsoft Co., Ltd.
39 The Count Lucanor Mar 3, 2016 $9.99N/A (N/A/78%)100,000 .. 200,0000%00:00 (00:00)Baroque DecayNeon Doctrine
40 Dead Rising 2 Sep 27, 2010 $19.99N/A (N/A/78%)500,000 .. 1,000,0000%00:00 (00:00)Capcom VancouverCapcom
41 Life is Strange: Before the Storm Aug 31, 2017 $16.99N/A (N/A/77%)2,000,000 .. 5,000,0000%00:00 (00:00)Deck Nine, Feral Interactive (Mac), Feral Interactive (Linux)Square Enix, Feral Interactive (Mac), Feral Interactive (Linux)
42 The Void Dec 15, 2009 $9.99N/A (N/A/77%)50,000 .. 100,0000%00:00 (00:00)Ice-Pick LodgeIce-Pick Lodge
43 Aviary Attorney Dec 21, 2015 $14.99N/A (N/A/77%)20,000 .. 50,0000%00:00 (00:00)Sketchy LogicSketchy Logic
44 Expeditions: Conquistador May 30, 2013 $19.99N/A (N/A/77%)200,000 .. 500,0000%00:00 (00:00)Logic ArtistsTHQ Nordic
45 The Darkness II Feb 9, 2012 $29.99N/A (N/A/77%)2,000,000 .. 5,000,0000%00:00 (00:00)Digital Extremes2K
46 Beholder 2 Dec 4, 2018 $17.99N/A (N/A/76%)500,000 .. 1,000,0000%00:00 (00:00)Alawar Stargaze (Warm Lamp Games)Alawar
47 Attentat 1942 Oct 31, 2017 $10.99N/A (N/A/76%)50,000 .. 100,0000%00:00 (00:00)Charles GamesCharles Games
48 JumpJet Rex Apr 21, 2015 $9.99N/A (N/A/76%)50,000 .. 100,0000%00:00 (00:00)TreeFortress GamesTreeFortress Games
49 Singularity Jun 30, 2010 $29.99N/A (N/A/76%)200,000 .. 500,0000%00:00 (00:00)Raven SoftwareActivision
50 Beholder Nov 9, 2016 $13.99N/A (N/A/75%)1,000,000 .. 2,000,0000%00:00 (00:00)Alawar Stargaze (Warm Lamp Games)Alawar
51 Event[0] Sep 14, 2016 $19.99N/A (N/A/75%)100,000 .. 200,0000%00:00 (00:00)Ocelot SocietyOcelot Society
52 Root Double -Before Crime * After Days- Xtend Edition Apr 27, 2016 $34.99N/A (N/A/75%)50,000 .. 100,0000%00:00 (00:00)Yeti, RegistaSekai Project
53 Shardlight Mar 8, 2016 $14.99N/A (N/A/75%)100,000 .. 200,0000%00:00 (00:00)Wadjet Eye GamesWadjet Eye Games
54 Armello Sep 1, 2015 $24.99N/A (N/A/75%)1,000,000 .. 2,000,0000%00:00 (00:00)League of GeeksLeague of Geeks
55 Orwell: Ignorance is Strength Feb 22, 2018 $2.99N/A (N/A/74%)200,000 .. 500,0000%00:00 (00:00)Osmotic StudiosFellow Traveller
56 Alone With You Feb 9, 2017 $9.99N/A (N/A/74%)0 .. 20,0000%00:00 (00:00)BancyCoBancyCo
57 Stories: The Path of Destinies Apr 12, 2016 $14.99N/A (N/A/74%)2,000,000 .. 5,000,0000%00:00 (00:00)Spearhead GamesSpearhead Games
58 Heaven's Hope - Special Edition Feb 25, 2016 $9.99N/A (N/A/74%)20,000 .. 50,0000%00:00 (00:00)Mosaic Mask StudioMosaic Mask Studio
59 The Eternal Castle [REMASTERED] Jan 5, 2019 $9.99N/A (N/A/73%)50,000 .. 100,0000%00:00 (00:00)Leonard Menchiari, Daniele Vicinanzo, Giulio PerronePlaysaurus
60 Quarantine Circular May 22, 2018 $5.99N/A (N/A/73%)0 .. 20,0000%00:00 (00:00)Bithell GamesBithell Games
61 Halcyon 6: Starbase Commander (LIGHTSPEED EDITION) Aug 10, 2017 $14.99N/A (N/A/73%)200,000 .. 500,0000%00:00 (00:00)Massive Damage, Inc.Massive Damage, Inc.
62 Blues and Bullets Jul 22, 2015 $4.99N/A (N/A/73%)100,000 .. 200,0000%00:00 (00:00)A Crowd of MonstersA Crowd of Monsters
63 Purrfect Date - Visual Novel/Dating Simulator Dec 15, 2017 $9.99N/A (N/A/72%)20,000 .. 50,0000%00:00 (00:00)Bae TeamBossa Studios
64 Dream Daddy: A Dad Dating Simulator Jul 20, 2017 $14.99N/A (N/A/72%)1,000,000 .. 2,000,0000%00:00 (00:00)Game GrumpsGame Grumps
65 Way of the Samurai 4 Jul 23, 2015 $24.99N/A (N/A/72%)200,000 .. 500,0000%00:00 (00:00)ACQUIRE Corp.Spike Chunsoft Co., Ltd.
66 Alpha Protocol Jun 1, 2010 N/AN/A (N/A/72%)500,000 .. 1,000,0000%00:00 (00:00)Obsidian EntertainmentSEGA
67 Dark Messiah of Might & Magic Oct 25, 2006 $9.99N/A (N/A/72%)1,000,000 .. 2,000,0000%00:00 (00:00)Arkane StudiosUbisoft
68 Not Tonight Aug 17, 2018 $19.99N/A (N/A/71%)100,000 .. 200,0000%00:00 (00:00)PanicBarnNo More Robots
69 Beat Cop Mar 30, 2017 $3.44N/A (N/A/71%)200,000 .. 500,0000%00:00 (00:00)Pixel Crow11 bit studios
70 Corpse Party Apr 25, 2016 $14.99N/A (N/A/71%)20,000 .. 50,0000%00:00 (00:00)GrisGrisXSEED Games, Marvelous USA, Inc.
71 Legends of Eisenwald Jul 2, 2015 $19.99N/A (N/A/71%)100,000 .. 200,0000%00:00 (00:00)Aterdux EntertainmentAterdux Entertainment
72 Dyscourse Mar 25, 2015 $14.99N/A (N/A/71%)50,000 .. 100,0000%00:00 (00:00)Owlchemy LabsOwlchemy Labs
73 Tokyo Dark Sep 7, 2017 $17.99N/A (N/A/70%)100,000 .. 200,0000%00:00 (00:00)CherrymochiSquare Enix
74 We Were Here Too Feb 2, 2018 $9.99N/A (N/A/69%)200,000 .. 500,0000%00:00 (00:00)Total Mayhem GamesTotal Mayhem Games
75 The Shrouded Isle Aug 4, 2017 $12.99N/A (N/A/69%)200,000 .. 500,0000%00:00 (00:00)Jongwoo Kim, Erica Lahaie, FX Bilodeau, Tanya ShortKitfox Games
76 Home Jun 1, 2012 $4.99N/A (N/A/69%)200,000 .. 500,0000%00:00 (00:00)BancyCoBancyCo
77 Songbringer Sep 1, 2017 $19.99N/A (N/A/68%)20,000 .. 50,0000%00:00 (00:00)Wizard FuWizard Fu, Double Eleven
78 Neverending Nightmares Sep 26, 2014 $14.99N/A (N/A/68%)100,000 .. 200,0000%00:00 (00:00)Infinitap GamesInfinitap Games
79 Hatoful Boyfriend Sep 4, 2014 $9.99N/A (N/A/68%)200,000 .. 500,0000%00:00 (00:00)Mediatonic, Hato MoaEpic Games
80 Tesla Effect: A Tex Murphy Adventure May 8, 2014 $19.99N/A (N/A/68%)200,000 .. 500,0000%00:00 (00:00)Big Finish GamesBig Finish Games
81 The Council Mar 13, 2018 FreeN/A (N/A/67%)200,000 .. 500,0000%00:00 (00:00)Big Bad WolfFocus Entertainment
82 Last Word May 8, 2015 $9.99N/A (N/A/67%)20,000 .. 50,0000%00:00 (00:00)Twelve TilesKOMODO
83 Long Live The Queen Nov 8, 2013 $9.99N/A (N/A/67%)200,000 .. 500,0000%00:00 (00:00)Hanako GamesHanako Games
84 Hot Tin Roof: The Cat That Wore A Fedora Feb 20, 2015 $14.99N/A (N/A/66%)100,000 .. 200,0000%00:00 (00:00)Glass Bottom GamesGlass Bottom Games
85 The Yawhg Feb 27, 2014 $9.99N/A (N/A/66%)50,000 .. 100,0000%00:00 (00:00)Damian Sommer, Emily CarrollDamian Sommer
86 The Novelist Dec 10, 2013 $4.99N/A (N/A/66%)100,000 .. 200,0000%00:00 (00:00)Orthogonal GamesOrthogonal Games
87 Ash of Gods: Redemption Mar 23, 2018 $24.99N/A (N/A/65%)200,000 .. 500,0000%00:00 (00:00)AurumDustAurumDust, WhisperGames
88 Unrest Jul 23, 2014 $9.99N/A (N/A/65%)50,000 .. 100,0000%00:00 (00:00)PyrodactylPyrodactyl
89 STAR WARS - The Force Unleashed Ultimate Sith Edition Dec 15, 2009 $19.99N/A (N/A/65%)1,000,000 .. 2,000,0000%00:00 (00:00)LucasArtsLucasArts, Lucasfilm, Disney
90 YIIK: A Postmodern RPG Jan 17, 2019 $19.99N/A (N/A/64%)50,000 .. 100,0000%00:00 (00:00)Ackk StudiosYsbryd Games
91 SINNER: Sacrifice for Redemption Oct 22, 2018 $18.99N/A (N/A/63%)50,000 .. 100,0000%00:00 (00:00)DARK STARNeon Doctrine
92 Has-Been Heroes Mar 28, 2017 $19.99N/A (N/A/63%)50,000 .. 100,0000%00:00 (00:00)FrozenbyteGameTrust Games
93 March of the Living Apr 20, 2016 $14.99N/A (N/A/63%)50,000 .. 100,0000%00:00 (00:00)Machine 22Creaky Corpse Ltd
94 Moon Hunters Mar 10, 2016 $14.99N/A (N/A/62%)500,000 .. 1,000,0000%00:00 (00:00)Kitfox GamesKitfox Games
95 Analogue: A Hate Story Apr 27, 2012 $9.99N/A (N/A/62%)100,000 .. 200,0000%00:00 (00:00)Love Conquers All GamesLove Conquers All Games
96 Warden: Melody of the Undergrowth Apr 8, 2016 $19.99N/A (N/A/59%)0 .. 20,0000%00:00 (00:00)Cardboard KeepCardboard Keep
97 VoidExpanse Apr 2, 2015 $14.99N/A (N/A/59%)50,000 .. 100,0000%00:00 (00:00)AtomicTorch StudioAtomicTorch Studio
98 Game of Thrones Jun 7, 2012 $14.99N/A (N/A/58%)200,000 .. 500,0000%00:00 (00:00)Cyanide Studios
99 The Assembly Jul 19, 2016 $29.99N/A (N/A/55%)0 .. 20,0000%00:00 (00:00)nDreamsnDreams
100 NightCry Mar 28, 2016 $24.99N/A (N/A/44%)100,000 .. 200,0000%00:00 (00:00)Nude MakerPLAYISM
101 Hello Neighbor Dec 8, 2017 $29.99N/A (N/A/38%)500,000 .. 1,000,0000%00:00 (00:00)Dynamic PixelstinyBuild
102 HOME May 11, 2019 FreeN/A (N/A)100,000 .. 200,0000%00:00 (00:00)LORE NINELORE NINE
103 Divine D.I.V.A. May 6, 2019 N/AN/A (N/A)20,000 .. 50,0000%00:00 (00:00)AlexGames
104 Muppy The Bunny : The Danger of Wishes Apr 30, 2019 N/AN/A (N/A)0 .. 20,0000%00:00 (00:00)Skyler Hanners, Laurie HannersLaurie Hanners
105 Hotel Tutwin Apr 15, 2019 FreeN/A (N/A)20,000 .. 50,0000%00:00 (00:00)Roxiano CreationsRoxiano Creations
106 vApe Escape Mar 15, 2019 FreeN/A (N/A)20,000 .. 50,0000%00:00 (00:00)GamechuckGamechuck
107 STEINS;GATE ELITE Feb 19, 2019 $59.99N/A (N/A)20,000 .. 50,0000%00:00 (00:00)MAGES. Inc.Spike Chunsoft Co., Ltd.
108 By Moonlight Feb 14, 2019 FreeN/A (N/A)0 .. 20,0000%00:00 (00:00)SugarHypedSugarHyped
109 Dream Enders RPG Feb 8, 2019 FreeN/A (N/A)20,000 .. 50,0000%00:00 (00:00)C.A.WitheyC.A.Withey
110 Welcome To... Chichester 1/Redux : The Spy Of America And The Long Vacation Jan 29, 2019 FreeN/A (N/A)0 .. 20,0000%00:00 (00:00)Triority Interactive NovelsTriority Interactive Novels
111 S.A.I.A.'s Awakening: A Robothorium Visual Novel Jan 17, 2019 N/AN/A (N/A)0 .. 20,0000%00:00 (00:00)Quentin LapeyreWhisper Games
112 Hir Corruption Nov 28, 2018 N/AN/A (N/A)0 .. 20,0000%00:00 (00:00)Pink Label Games
113 Tennis Story Oct 5, 2018 FreeN/A (N/A)0 .. 20,0000%00:00 (00:00)Gersh Games LLCGersh Games LLC
114 Dark Deception Sep 26, 2018 FreeN/A (N/A)1,000,000 .. 2,000,0000%00:00 (00:00)Glowstick EntertainmentGlowstick Entertainment
115 Just One Line Sep 12, 2018 FreeN/A (N/A)0 .. 20,0000%00:00 (00:00)JOL StudiosJOL Studios
116 Entre-Deux: Cursed Sep 12, 2018 N/AN/A (N/A)0 .. 20,0000%00:00 (00:00)T1 Games
117 one night, hot springs Aug 30, 2018 FreeN/A (N/A)100,000 .. 200,0000%00:00 (00:00)npckcnpckc
118 Lake of Voices Aug 28, 2018 FreeN/A (N/A)100,000 .. 200,0000%00:00 (00:00)GB Patch GamesGB Patch Games
119 Hack the Core Aug 23, 2018 N/AN/A (N/A)0 .. 20,0000%00:00 (00:00)Plug In Digital
120 Les 4 Alice: Lorange Journey Aug 13, 2018 N/AN/A (N/A)0 .. 20,0000%00:00 (00:00)PalveGames
121 Welcome To... Chichester 2 - Part I : The Spy Of Chichester And The Eager Tourist Guide HD Edition Aug 3, 2018 FreeN/A (N/A)0 .. 20,0000%00:00 (00:00)Triority Interactive NovelsTriority Interactive Novels
122 Non-Linear Text Quests Jul 24, 2018 FreeN/A (N/A)0 .. 20,0000%00:00 (00:00)NLB projectNLB project
123 Jul 19, 2018 $2.99N/A (N/A)0 .. 20,0000%00:00 (00:00)Nuclear Tales
124 Who Am I: The Tale of Dorothy Apr 16, 2018 N/AN/A (N/A)20,000 .. 50,0000%00:00 (00:00)Onaemo StudioOnaemo Studio
125 KOEWOTAYORINI / 声之寄托 Mar 26, 2018 FreeN/A (N/A)100,000 .. 200,0000%00:00 (00:00)あみそ組Pujia8 Studio, Gamera Game
126 Meteor 60 Seconds! Feb 26, 2018 FreeN/A (N/A)200,000 .. 500,0000%00:00 (00:00)AvoCavoAvoCavo
127 Kare wa Kanojo Jan 5, 2018 N/AN/A (N/A)0 .. 20,0000%00:00 (00:00)JMF GamesJMF Games
128 Vacation: dayOFF Dec 12, 2017 FreeN/A (N/A)0 .. 20,0000%00:00 (00:00)turninGear-In.
129 家有大貓 Nekojishi Nov 12, 2017 FreeN/A (N/A)200,000 .. 500,0000%00:00 (00:00)Studio Klondike, Team NekojishiStudio Klondike, Orange Juice Dog
130 Don't Make Love Oct 26, 2017 FreeN/A (N/A)20,000 .. 50,0000%00:00 (00:00)MaggeseMaggese
131 XOXO Droplets Aug 31, 2017 FreeN/A (N/A)20,000 .. 50,0000%00:00 (00:00)GB Patch GamesGB Patch Games
132 Les Quatre Alices Aug 28, 2017 N/AN/A (N/A)0 .. 20,0000%00:00 (00:00)Paradise Project
133 Naev Jul 17, 2017 FreeN/A (N/A)100,000 .. 200,0000%00:00 (00:00)Naev TeamNaev Team
134 Princess Maker 3: Fairy Tales Come True Jun 27, 2017 N/AN/A (N/A)20,000 .. 50,0000%00:00 (00:00)CFK Co., Ltd.CFK Co., Ltd.
135 Confess My Love May 20, 2017 FreeN/A (N/A)200,000 .. 500,0000%00:00 (00:00)LR StudioLR Studio
136 Blossoms Bloom Brightest Apr 28, 2017 N/AN/A (N/A)20,000 .. 50,0000%00:00 (00:00)Reine WorksReine Works
137 Cinderella Phenomenon - Otome/Visual Novel Apr 5, 2017 FreeN/A (N/A)200,000 .. 500,0000%00:00 (00:00)DicesukiDicesuki
138 We Were Here Feb 3, 2017 FreeN/A (N/A)1,000,000 .. 2,000,0000%00:00 (00:00)Total Mayhem GamesTotal Mayhem Games
139 Trick and Treat - Visual Novel Dec 30, 2016 FreeN/A (N/A)200,000 .. 500,0000%00:00 (00:00)Eternal Night StudiosAlberto Herrera, Ziel Graywords, Stw projects
140 Major\Minor - Complete Edition Oct 11, 2016 FreeN/A (N/A)50,000 .. 100,0000%00:00 (00:00)KlaceKlace
141 CUPID - A free to play Visual Novel Mar 4, 2016 FreeN/A (N/A)100,000 .. 200,0000%00:00 (00:00)FerventAfterthought Studios
142 Celestial Tear: Demon's Revenge Nov 19, 2015 N/AN/A (N/A)20,000 .. 50,0000%00:00 (00:00)White Guardian Studios LLCWhite Guardian Studios LLC
143 Eternal Senia Jun 18, 2015 FreeN/A (N/A)500,000 .. 1,000,0000%00:00 (00:00)Sanctum GamesSanctum Games
144 Life is Strange - Episode 1 Jan 29, 2015 FreeN/A (N/A)5,000,000 .. 10,000,0000%00:00 (00:00)DONTNOD Entertainment, Feral Interactive (Mac), Feral Interactive (Linux)Square Enix, Feral interactive (Mac), Feral Interactive (Linux)
145 Princess Remedy in a World of Hurt Dec 1, 2014 FreeN/A (N/A)200,000 .. 500,0000%00:00 (00:00)Ludosity, Remar GamesLudosity
146 Everlasting Summer Nov 19, 2014 FreeN/A (N/A)2,000,000 .. 5,000,0000%00:00 (00:00)Soviet GamesSoviet Games
147 Depression Quest Aug 11, 2014 N/AN/A (N/A)200,000 .. 500,0000%00:00 (00:00)The Quinnspiracy, Patrick Lindsey, Isaac SchanklerThe Quinnspiracy
148 Lamia Must Die Feb 17, 2014 FreeN/A (N/A)20,000 .. 50,0000%00:00 (00:00)Tuomo LaineTuomo Laine
149 MapleStory Aug 9, 2012 FreeN/A (N/A)2,000,000 .. 5,000,0000%00:00 (00:00)NEXON Korea CorporationNexon America Inc.
150 football girl Dec 3, 2010 FreeN/A (N/A)0 .. 20,0000%00:00 (00:00)blueskybluesky
151 Hammerfight Sep 19, 2009 FreeN/A (N/A)200,000 .. 500,0000%00:00 (00:00)Konstantin KoshutinKranX Productions
152 Aztaka May 7, 2009 N/AN/A (N/A)50,000 .. 100,0000%00:00 (00:00)Citeremis Inc.Citeremis Inc.
153 Sevgilim Olur musun ? Apr 15, 2006 FreeN/A (N/A)100,000 .. 200,0000%00:00 (00:00)Proximity GamesProximity Games
154 KóterGame Jan 11, 2004 FreeN/A (N/A)0 .. 20,0000%00:00 (00:00)DzsemboriDzsembori
155 Oirbo N/AN/A (N/A)0 .. 20,0000%00:00 (00:00)ImaginationOverflowImaginationOverflow
156 The Nine Lives of Nim: Fortune's Fool May 30, 2019 $8.99N/A (N/A)0 .. 20,0000%00:00 (00:00)Sky Bear GamesSky Bear Games, Pearangi Creative
157 DON'T WAKE THE NIGHT May 29, 2019 $6.99N/A (N/A)0 .. 20,0000%00:00 (00:00)Brujería @ WerkBrujería @ Werk
158 An Adventurer's Tale May 23, 2019 N/AN/A (N/A)0 .. 20,0000%00:00 (00:00)Epic WorksOther Ocean Group
159 Alternate DiMansion Diary May 23, 2019 $9.99N/A (N/A)0 .. 20,0000%00:00 (00:00)Sprite HillsKagura Games
160 Fortress of Hell May 22, 2019 $0.76N/A (N/A)0 .. 20,0000%00:00 (00:00)Aldorlea GamesAldorlea Games
161 Project ONe プロジェクト・ワン ~ハロルドはつらいよ~ May 22, 2019 $1.99N/A (N/A)20,000 .. 50,0000%00:00 (00:00)Hellshake YanoHellshake Yano.
162 Otaku's Adventure May 20, 2019 $6.99N/A (N/A)200,000 .. 500,0000%00:00 (00:00)Spacelight StudioSpacelight Studio
163 The Fifth Horseman May 16, 2019 $1.99N/A (N/A)0 .. 20,0000%00:00 (00:00)Angelo ParodiAngelo Parodi
164 As We Know It May 8, 2019 $14.99N/A (N/A)20,000 .. 50,0000%00:00 (00:00)Jaime Scribbles GamesJaime Scribbles Games
165 MIDNIGHT Remastered May 7, 2019 $0.99N/A (N/A)20,000 .. 50,0000%00:00 (00:00)Mad Jackal GamesMad Jackal Games
166 Planet Nomads May 3, 2019 N/AN/A (N/A)50,000 .. 100,0000%00:00 (00:00)CraneballsCraneballs
167 Dr. Trolley's Problem Apr 25, 2019 $4.99N/A (N/A)0 .. 20,0000%00:00 (00:00)WeroWero Creative
168 Room of Pandora Apr 24, 2019 $0.99N/A (N/A)20,000 .. 50,0000%00:00 (00:00)SHEN JIAWEI, ZHANG FANSHEN JIAWEI, ZHANG FAN
169 Talk to Strangers Apr 19, 2019 $2.49N/A (N/A)20,000 .. 50,0000%00:00 (00:00)Post Mortem PixelsGrabTheGames
170 Ritual of the Moon Apr 18, 2019 $9.99N/A (N/A)0 .. 20,0000%00:00 (00:00)Kara StoneKara Stone
171 Save Koch Apr 18, 2019 $11.99N/A (N/A)0 .. 20,0000%00:00 (00:00)Wooden MonkeysWooden Monkeys
172 Trinoline All Ages Version Apr 18, 2019 $34.99N/A (N/A)0 .. 20,0000%00:00 (00:00)minoriMangaGamer
173 Nurse Love Syndrome Apr 18, 2019 $39.99N/A (N/A)0 .. 20,0000%00:00 (00:00)KOGADO STUDIOKOMODO
174 Train Valley 2 Apr 15, 2019 $14.99N/A (N/A)100,000 .. 200,0000%00:00 (00:00)Alexey Davydov, Sergey Dvoynikov, Timofey ShargorodskiyFlazm, META Publishing
175 Static Apr 5, 2019 $9.99N/A (N/A)20,000 .. 50,0000%00:00 (00:00)Dogwood Gaming-
176 Ozapell Mystery Text Adventure Apr 1, 2019 $1.99N/A (N/A)0 .. 20,0000%00:00 (00:00)OzapellOzapell
177 Cliché - Critical Change Mar 28, 2019 $17.99N/A (N/A)0 .. 20,0000%00:00 (00:00)Zeiva IncZeiva Inc
178 シルヴァリオ トリニティ-Beyond the Horizon- Mar 28, 2019 $64.99N/A (N/A)0 .. 20,0000%00:00 (00:00)lightARES Inc.
179 Slave RPG Mar 27, 2019 $4.99N/A (N/A)0 .. 20,0000%00:00 (00:00)Rising Sun InteractiveRising Sun Interactive
180 TOKYO CHRONOS Mar 19, 2019 $29.99N/A (N/A)20,000 .. 50,0000%00:00 (00:00)MyDearest Inc.Sekai Project
181 Book of Eos Mar 15, 2019 $2.99N/A (N/A)0 .. 20,0000%00:00 (00:00)Dragon's Layer ProductionsDragon's Layer Productions
182 Reflections ~Dreams and Reality~ Jul 29, 2018 $4.99N/A (N/A)0 .. 20,0000%00:00 (00:00)Reine WorksTop Hat Curios & Oddities
183 Воин Хинора Mar 11, 2019 $1.99N/A (N/A)20,000 .. 50,0000%00:00 (00:00)EvaGamesEvaGames
184 恶魔迷宫 2 |Evil Maze 2 | 惡魔迷宮 2 Mar 8, 2019 $9.99N/A (N/A)0 .. 20,0000%00:00 (00:00)ZOV GAME STUDIOZOV GAME STUDIO
185 Leanna's Slice of Life Mar 7, 2019 $14.99N/A (N/A)100,000 .. 200,0000%00:00 (00:00)AcerolaKagura Games
186 7th Sector Mar 5, 2019 $12.99N/A (N/A)100,000 .. 200,0000%00:00 (00:00)Носков СергейНосков Сергей
187 Protocol VR Mar 4, 2019 N/AN/A (N/A)0 .. 20,0000%00:00 (00:00)Fair Games StudioFair Games Studio
188 Wounded - The Beginning Feb 28, 2019 $6.99N/A (N/A)0 .. 20,0000%00:00 (00:00)Workbench Entertainmentindie.io
189 Blood Bond - Into the Shroud (Enhanced Edition) Feb 27, 2019 N/AN/A (N/A)0 .. 20,0000%00:00 (00:00)W.R.K.S GamesW.R.K.S Games
190 Dream Rose Feb 10, 2019 $4.99N/A (N/A)0 .. 20,0000%00:00 (00:00)SupremePsychoFlux Entertainment
191 Tiny Snow Feb 27, 2019 $2.39N/A (N/A)50,000 .. 100,0000%00:00 (00:00)#workshopNVLMaker
192 The LEGO Movie 2 Videogame Feb 26, 2019 $29.99N/A (N/A)100,000 .. 200,0000%00:00 (00:00)TT Games, Feral interactive (Mac)Warner Bros. Interactive Entertainment, Feral interactive (Mac)
193 Electric Sleep Feb 22, 2019 $4.99N/A (N/A)0 .. 20,0000%00:00 (00:00)Vlad Abadzhiev, Matthew Weekes, Jack Sanderson-Thwaite, Michael BeczeVlad Abadzhiev
194 她2 : 我还想再见到你 Her2 : I Want To See You Again Feb 15, 2019 $3.99N/A (N/A)0 .. 20,0000%00:00 (00:00)她2 : 我还想再见到你她2 : 我还想再见到你
195 Clocker Feb 14, 2019 $0.69N/A (N/A)20,000 .. 50,0000%00:00 (00:00)熊孩子工作室indienova
196 Steam Prison Feb 14, 2019 $34.99N/A (N/A)20,000 .. 50,0000%00:00 (00:00)HunexMangaGamer
197 Blind Date Feb 14, 2019 $2.99N/A (N/A)0 .. 20,0000%00:00 (00:00)Joshua Wilson, MentalpopJoshua Wilson
198 The Island: Into The Mist Jan 31, 2019 $9.99N/A (N/A)50,000 .. 100,0000%00:00 (00:00)SUPERWAVE STUDIOBADA Games
199 9-nine-:Episode 1 Jan 31, 2019 $19.99N/A (N/A)20,000 .. 50,0000%00:00 (00:00)PALETTESekai Project
200 Tales of Ancient Nights Jan 29, 2019 $0.99N/A (N/A)0 .. 20,0000%00:00 (00:00)Demir LeylekDemir Leylek
201 枕边少女 MOE Hypnotist - share dreams with you Jan 25, 2019 $6.99N/A (N/A)20,000 .. 50,0000%00:00 (00:00)橘子班PeriScope Game
202 Super gamebear with its three girlfriends超级神经熊:你想知道关于超级喜欢游戏的一头黑色矮小的游戏熊是如何与它的“三个后宫团女朋友”购买到GBC游戏机的吗? Jan 20, 2019 $3.99N/A (N/A)0 .. 20,0000%00:00 (00:00)老公你说句话啊NM$L GAMEs
203 CHAOS;CHILD Jan 22, 2019 $24.99N/A (N/A)50,000 .. 100,0000%00:00 (00:00)MAGES. Inc.Spike Chunsoft Co., Ltd.
204 How to Sing to Open Your Heart Jan 17, 2019 $11.99N/A (N/A)0 .. 20,0000%00:00 (00:00)ROSEVERTEROSEVERTE
205 Furries & Scalies & Bears OH MY! Jan 16, 2019 $9.99N/A (N/A)0 .. 20,0000%00:00 (00:00)Stefan Klaus, Stegalosaurus Game DevelopmentStefan Klaus, Stegalosaurus Game Development
206 Battle for Gaming Jan 9, 2019 $0.99N/A (N/A)20,000 .. 50,0000%00:00 (00:00)Free Time DevFree Time Dev
207 Zeliria Sanctuary Jan 7, 2019 $9.99N/A (N/A)50,000 .. 100,0000%00:00 (00:00)Salangan GamesPhoenix_co
208 Laser Maze Jan 4, 2019 $4.99N/A (N/A)0 .. 20,0000%00:00 (00:00)-Yodasaurus- Games-Yodasaurus- Games
209 Kunoichi Botan Jan 3, 2019 $14.99N/A (N/A)20,000 .. 50,0000%00:00 (00:00)EnokippuKagura Games
210 Eldritch Academy Jan 4, 2019 $11.99N/A (N/A)0 .. 20,0000%00:00 (00:00)NightshadeNightshade
211 Pamali: Indonesian Folklore Horror Dec 27, 2018 $4.99N/A (N/A)20,000 .. 50,0000%00:00 (00:00)StorytaleStorytale, Maple Whispering Limited
212 Close Your Eyes Dec 21, 2018 $8.99N/A (N/A)0 .. 20,0000%00:00 (00:00)Yai GameworksYai Gameworks
213 Adventures of Dragon Dec 20, 2018 $3.99N/A (N/A)0 .. 20,0000%00:00 (00:00)Tuomo LaineTuomo's games
214 sweet pool Dec 19, 2018 $19.99N/A (N/A)20,000 .. 50,0000%00:00 (00:00)NitroplusJAST USA
215 The.Thend.End Dec 19, 2018 $0.99N/A (N/A)0 .. 20,0000%00:00 (00:00)Give Me MoneyGive Me Money
216 My 1/6 Lover Dec 12, 2018 $1.99N/A (N/A)100,000 .. 200,0000%00:00 (00:00)lamb of gamelamb of game
217 Clinically Dead Dec 6, 2018 $14.99N/A (N/A)0 .. 20,0000%00:00 (00:00)Mogila GamesUltimate Games S.A.
218 Lightning Angel Litona Liliche 섬광천사 리토나 리리셰 Dec 5, 2018 $11.99N/A (N/A)0 .. 20,0000%00:00 (00:00)TALESSHOP Co., Ltd.TALESSHOP Co., Ltd.
219 Kaori After Story Dec 3, 2018 $9.99N/A (N/A)20,000 .. 50,0000%00:00 (00:00)PixelFadePixelFade
220 Above the Fold Dec 3, 2018 $13.99N/A (N/A)0 .. 20,0000%00:00 (00:00)Rasmus RasmussenRasmus Rasmussen
221 Protocol Nov 20, 2018 $10.99N/A (N/A)20,000 .. 50,0000%00:00 (00:00)Fair Games StudioSad Horse studio
222 Anime And Your Life Nov 16, 2018 $0.8N/A (N/A)0 .. 20,0000%00:00 (00:00)BadWolf GamesHandMade Games
223 Phantom Thief Celianna Nov 15, 2018 $12.99N/A (N/A)20,000 .. 50,0000%00:00 (00:00)AcerolaKagura Games
224 Psychedelica of the Black Butterfly Nov 15, 2018 $29.99N/A (N/A)20,000 .. 50,0000%00:00 (00:00)IDEA FACTORYIntragames
225 河洛群俠傳 (Ho Tu Lo Shu : The Books of Dragon) Nov 14, 2018 $17.99N/A (N/A)200,000 .. 500,0000%00:00 (00:00)香港商河洛互動娛樂股份有限公司香港商河洛互動娛樂股份有限公司, 方块游戏
226 The Room Three Nov 13, 2018 $5.99N/A (N/A)200,000 .. 500,0000%00:00 (00:00)Fireproof GamesFireproof Games
227 Quantum Retribution Nov 8, 2018 N/AN/A (N/A)0 .. 20,0000%00:00 (00:00)Paradox BagParadox Bag
228 Lost in Vivo Nov 5, 2018 $11.99N/A (N/A)200,000 .. 500,0000%00:00 (00:00)KIRAKIRA
229 Seed of Evil Nov 1, 2018 $12.99N/A (N/A)20,000 .. 50,0000%00:00 (00:00)HasoyuaKagura Games
230 Physical Exorcism: Case 01 Oct 31, 2018 $2.99N/A (N/A)0 .. 20,0000%00:00 (00:00)Sounding Stone / 老奉毊, Meijin Zhu / 五月梅花落Sounding Stone / 老奉毊, RMAsia
231 BLACK BIRD Oct 30, 2018 $18.99N/A (N/A)0 .. 20,0000%00:00 (00:00)Onion GamesOnion Games
232 Space Castle Oct 30, 2018 $2.99N/A (N/A)0 .. 20,0000%00:00 (00:00)PR gamesPR games
233 Corpse Party: Book of Shadows Oct 29, 2018 $14.99N/A (N/A)20,000 .. 50,0000%00:00 (00:00)MAGES. Inc., 5pb.XSEED Games, Marvelous USA, Inc.
234 The Ditzy Demons Are in Love With Me Oct 26, 2018 $24.99N/A (N/A)50,000 .. 100,0000%00:00 (00:00)SMILESekai Project
235 Rainbow Cult Oct 25, 2018 N/AN/A (N/A)0 .. 20,0000%00:00 (00:00)Death Hill GamesDeath Hill Games
236 NAMELESS Oct 25, 2018 $6.99N/A (N/A)0 .. 20,0000%00:00 (00:00)Tiny Warrior GamesTiny Warrior Games
237 Do Not Feed the Monkeys Oct 23, 2018 $15.99N/A (N/A)500,000 .. 1,000,0000%00:00 (00:00)Fictiorama Studios, BadLand Games Publishing S.L.Alawar
238 Headliner: NoviNews Oct 23, 2018 $13.99N/A (N/A)100,000 .. 200,0000%00:00 (00:00)Unbound CreationsUnbound Creations
239 Viviette Oct 18, 2018 $9.99N/A (N/A)20,000 .. 50,0000%00:00 (00:00)DYA GamesDYA Games
240 Her 她 Oct 16, 2018 $3.99N/A (N/A)0 .. 20,0000%00:00 (00:00)Her 她Her 她
241 Assassin's Creed Odyssey Oct 5, 2018 $59.99N/A (N/A)2,000,000 .. 5,000,0000%00:00 (00:00)Ubisoft Quebec, Ubisoft Montreal, Ubisoft Bucharest, Ubisoft Singapore, Ubisoft Montpellier, Ubisoft Kiev, Ubisoft ShanghaiUbisoft
242 Candy Raid: The Factory Oct 1, 2018 $4.99N/A (N/A)0 .. 20,0000%00:00 (00:00)KR Game StudiosKR Game Studios
243 INSOMNIA: The Ark Sep 27, 2018 $29.99N/A (N/A)100,000 .. 200,0000%00:00 (00:00)Mono StudioHeroCraft PC
244 SpaceTone Sep 24, 2018 $12.99N/A (N/A)0 .. 20,0000%00:00 (00:00)SpaceSoySauceStudioSpaceSoySauceStudio
245 Star Control: Origins Sep 20, 2018 $10.19N/A (N/A)200,000 .. 500,0000%00:00 (00:00)Stardock EntertainmentStardock Entertainment
246 60 Parsecs! Sep 18, 2018 $9.99N/A (N/A)200,000 .. 500,0000%00:00 (00:00)Robot GentlemanRobot Gentleman
247 Seers Isle Sep 18, 2018 $13.99N/A (N/A)0 .. 20,0000%00:00 (00:00)Nova-boxNova-box
248 Shining Song Starnova Sep 13, 2018 $29.99N/A (N/A)50,000 .. 100,0000%00:00 (00:00)Love in SpaceSekai Project
249 Space Fox Kimi Sep 7, 2018 $0.99N/A (N/A)50,000 .. 100,0000%00:00 (00:00)ShenTzuShenTzu Games
250 Virtual Virtual Reality Mar 9, 2017 $14.99N/A (N/A)50,000 .. 100,0000%00:00 (00:00)Tender ClawsTender Claws
251 Love's Sweet Garnish Sep 7, 2018 $12.99N/A (N/A)20,000 .. 50,0000%00:00 (00:00)Canvas+GardenSekai Project
252 NOISZ Aug 31, 2018 $19.99N/A (N/A)0 .. 20,0000%00:00 (00:00)Anarch EntertainmentAnarch Entertainment
253 Rigid Force Alpha Aug 31, 2018 $19.99N/A (N/A)20,000 .. 50,0000%00:00 (00:00)com8com1 Softwarecom8com1 Software
254 Seul (Alone): The entrée Aug 31, 2018 $2.99N/A (N/A)0 .. 20,0000%00:00 (00:00)Paranormal GamesParanormal Games
255 Sexy Jigsaw | 性感拼图 | 섹시 퍼즐 | セクシーなパズル Aug 24, 2018 $3.99N/A (N/A)0 .. 20,0000%00:00 (00:00)ZOV GAME STUDIOZOV GAME STUDIO
256 ISLAND Aug 23, 2018 $39.99N/A (N/A)20,000 .. 50,0000%00:00 (00:00)FrontwingFrontwing USA
257 Crystalline Aug 22, 2018 $19.99N/A (N/A)100,000 .. 200,0000%00:00 (00:00)PixelFadePixelFade
258 Lucah: Born of a Dream Aug 21, 2018 $9.99N/A (N/A)20,000 .. 50,0000%00:00 (00:00)melessthanthreeSyndicate Atomic LLC.
259 NEKOKORO Aug 16, 2018 $4.99N/A (N/A)20,000 .. 50,0000%00:00 (00:00)Mikołaj SpychałMikołaj Spychał
260 Prank Masters ~ Otome Visual Novel Jun 2, 2018 $4.99N/A (N/A)0 .. 20,0000%00:00 (00:00)Lockvia StudiosLockvia Studios
261 Small Sister Aug 15, 2018 $0.99N/A (N/A)20,000 .. 50,0000%00:00 (00:00)Proximity GamesProximity Games
262 Intelligence Trader Aug 3, 2018 N/AN/A (N/A)0 .. 20,0000%00:00 (00:00)DreambakersDreambakers
263 Trivia Quiz: All about everything! Aug 3, 2018 $3.99N/A (N/A)0 .. 20,0000%00:00 (00:00)DuCats Games StudioDuCats Games Studio
264 Anicon - Animal Complex - Sheep's Path Jul 4, 2018 $7.99N/A (N/A)0 .. 20,0000%00:00 (00:00)Zeiva IncZeiva Inc
265 SaGa SCARLET GRACE: AMBITIONS Aug 1, 2018 $29.99N/A (N/A)20,000 .. 50,0000%00:00 (00:00)Square EnixSquare Enix
266 Hazmat Hijinks: Total Meltdown Aug 1, 2018 $9.99N/A (N/A)0 .. 20,0000%00:00 (00:00)Tod PowersNational Spork LLC
267 Arkhangel: The House of the Seven Stars Jul 27, 2018 FreeN/A (N/A)20,000 .. 50,0000%00:00 (00:00)Winter Night GamesZQ SFX LLC
268 Helping Hand Jul 26, 2018 $8.99N/A (N/A)0 .. 20,0000%00:00 (00:00)HubblegumHubblegum
269 Flowers -Le volume sur ete- Jul 26, 2018 $19.99N/A (N/A)20,000 .. 50,0000%00:00 (00:00)Innocent GreyJAST USA
270 Treasure Hunter Claire Jul 19, 2018 $19.99N/A (N/A)200,000 .. 500,0000%00:00 (00:00)AcerolaKagura Games
271 Mary Skelter: Nightmares Jul 19, 2018 $24.99N/A (N/A)20,000 .. 50,0000%00:00 (00:00)Idea FactoryGhostlight LTD
272 A Rite from the Stars Jul 19, 2018 $14.99N/A (N/A)0 .. 20,0000%00:00 (00:00)Risin' Goat, Flying Beast LabsPhoenix Online Publishing
273 Bleeding Sun Jul 14, 2018 $2.99N/A (N/A)0 .. 20,0000%00:00 (00:00)Jaime Paz LopesJaime Paz Lopes
274 The Book of Regrets Jul 5, 2018 $2.99N/A (N/A)0 .. 20,0000%00:00 (00:00)Synodic ArcSynodic Arc
275 Depression The Game Jul 2018 $1.99N/A (N/A)0 .. 20,0000%00:00 (00:00)DeepWorks StudiosDeepWorks Studios
276 Starlight Drifter Jun 29, 2018 $19.99N/A (N/A)20,000 .. 50,0000%00:00 (00:00)Dharker StudiosDharker Studios
277 Summer Pockets Jun 29, 2018 $44.99N/A (N/A)50,000 .. 100,0000%00:00 (00:00)VisualArts/KeyVisualArts
278 Shadow Council: The Puppeteers Jun 21, 2018 N/AN/A (N/A)0 .. 20,0000%00:00 (00:00)Tap by TapTap by Tap
279 Yakuza Kiss Jun 19, 2018 $9.99N/A (N/A)0 .. 20,0000%00:00 (00:00)Pink PotionPink Potion
280 A Light in the Dark Jun 15, 2018 $14.99N/A (N/A)50,000 .. 100,0000%00:00 (00:00)CreSpirit, STORIA, NarratorSekai Project
281 Nobunaga's Shadow Jun 11, 2018 $9.99N/A (N/A)0 .. 20,0000%00:00 (00:00)Ultaan GamesUltaan Games
282 The Wilting Amaranth Jun 4, 2018 $4.99N/A (N/A)0 .. 20,0000%00:00 (00:00)Reine WorksTop Hat Curios & Oddities
283 Kitsune Kitchen Jun 1, 2018 $0.99N/A (N/A)0 .. 20,0000%00:00 (00:00)Technomancy StudiosTechnomancy Studios
284 Project Pastorate May 31, 2018 $1.99N/A (N/A)20,000 .. 50,0000%00:00 (00:00)PsyRobMeridian4
285 Tell Me Everything May 29, 2018 $0.99N/A (N/A)50,000 .. 100,0000%00:00 (00:00)LizardFactoryLizardFactory
286 Catmaze May 24, 2018 $9.99N/A (N/A)0 .. 20,0000%00:00 (00:00)Redblack SpadeRedblack Spade
287 Fhtagn! - Tales of the Creeping Madness May 22, 2018 $9.99N/A (N/A)0 .. 20,0000%00:00 (00:00)Design ImpsDesign Imps
288 Strangers of the Power 2 May 21, 2018 $3.99N/A (N/A)0 .. 20,0000%00:00 (00:00)Tuomo LaineTuomo's games
289 SwordBounce May 19, 2018 $4.99N/A (N/A)0 .. 20,0000%00:00 (00:00)GogglesKittyGogglesKitty
290 Ctrl CV May 18, 2018 FreeN/A (N/A)50,000 .. 100,0000%00:00 (00:00)ZPinkPsychoFlux Entertainment
291 Nepenthe May 17, 2018 $4.99N/A (N/A)20,000 .. 50,0000%00:00 (00:00)Yitzyours truly
292 STAY May 16, 2018 $11.99N/A (N/A)50,000 .. 100,0000%00:00 (00:00)Appnormals TeamAppnormals Team
293 Bastard May 14, 2018 $8.99N/A (N/A)50,000 .. 100,0000%00:00 (00:00)Aterdux EntertainmentAterdux Entertainment
294 May May 10, 2018 $4.99N/A (N/A)0 .. 20,0000%00:00 (00:00)Manul GamesManul Games
295 Stop! Dictator Kim Jong-un May 10, 2018 N/AN/A (N/A)0 .. 20,0000%00:00 (00:00)eroconaerocona
296 Cave Digger VR May 10, 2018 $19.9N/A (N/A)50,000 .. 100,0000%00:00 (00:00)VRKiwiVRKiwi
297 STEINS;GATE 0 May 8, 2018 $34.99N/A (N/A)100,000 .. 200,0000%00:00 (00:00)MAGES. Inc.Spike Chunsoft Co., Ltd.
298 Fureraba ~Friend to Lover~ May 4, 2018 $29.99N/A (N/A)0 .. 20,0000%00:00 (00:00)SmeeNekoNyan Ltd.
299 Princess Maker 5 May 4, 2018 $29.99N/A (N/A)50,000 .. 100,0000%00:00 (00:00)CFK Co., Ltd.Bliss Brain
300 Inexplicable Geeks: Dawn of Just Us May 3, 2018 $9.99N/A (N/A)20,000 .. 50,0000%00:00 (00:00)Stegalosaurus Game DevelopmentStegalosaurus Game Development
301 Little Marisa's Disaster Journey Apr 28, 2018 $0.99N/A (N/A)0 .. 20,0000%00:00 (00:00)Dark Sky EmpireDark Sky Empire
302 Norilsk Apr 27, 2018 $2.99N/A (N/A)0 .. 20,0000%00:00 (00:00)Sunflower GamesSunflower Games
303 NEKO-NIN exHeart 2 Apr 27, 2018 $9.99N/A (N/A)20,000 .. 50,0000%00:00 (00:00)WhirlpoolSekai Project
304 AIdol: Artificial Intelligence Idol Apr 23, 2018 $5.49N/A (N/A)0 .. 20,0000%00:00 (00:00)MysteryCorgiMysteryCorgi
305 Final Battle Apr 20, 2018 $6.99N/A (N/A)0 .. 20,0000%00:00 (00:00)Cherry BloomCherry Bloom
306 Doodle Date Apr 19, 2018 $1.99N/A (N/A)20,000 .. 50,0000%00:00 (00:00)Nicholas LivesNicholas Lives
307 Tactics & Strategy Master:Joan of Arc Mar 28, 2018 $4.99N/A (N/A)20,000 .. 50,0000%00:00 (00:00)Gemini Stars GamesGemini Stars Games
308 BlueberryNOVA Apr 5, 2018 $3.99N/A (N/A)0 .. 20,0000%00:00 (00:00)Nova B12, OtakuNovelNova B12
309 Paper Shakespeare: To Date Or Not To Date? Apr 4, 2018 $8.99N/A (N/A)0 .. 20,0000%00:00 (00:00)Stegalosaurus Game DevelopmentStegalosaurus Game Development
310 Fatal Twelve Mar 30, 2018 $13.99N/A (N/A)20,000 .. 50,0000%00:00 (00:00)LYCORISSekai Project
311 Luminescence Mar 30, 2018 $0.99N/A (N/A)0 .. 20,0000%00:00 (00:00)Genetic StudioGenetic Studio
312 The Land of Glass Mar 27, 2018 $14.99N/A (N/A)0 .. 20,0000%00:00 (00:00)Dual Wield SoftwareDual Wield Software
313 Ostalgie: The Berlin Wall Mar 25, 2018 $5.99N/A (N/A)100,000 .. 200,0000%00:00 (00:00)KremlingamesKremlingames
314 ROMBIE Mar 23, 2018 $8.99N/A (N/A)0 .. 20,0000%00:00 (00:00)Phr00t's SoftwarePhr00t's Software
315 The Adventurous Four Mar 22, 2018 $3.99N/A (N/A)0 .. 20,0000%00:00 (00:00)NLB projectNLB project
316 Hakuoki: Edo Blossoms Mar 13, 2018 $9.99N/A (N/A)20,000 .. 50,0000%00:00 (00:00)Idea Factory, Design FactoryIdea Factory International
317 My Lovely Daughter Mar 8, 2018 $14.99N/A (N/A)100,000 .. 200,0000%00:00 (00:00)GameChanger StudioToge Productions, Neon Doctrine
318 Acceleration of SUGURI 2 Mar 7, 2018 $8.99N/A (N/A)200,000 .. 500,0000%00:00 (00:00)Orange_JuiceFruitbat Factory
319 Twin Blue Moons Mar 7, 2018 $4.99N/A (N/A)0 .. 20,0000%00:00 (00:00)Arcus PlumeArcus Plume
320 TOMORROW DON'T COME - Puzzling Depression Mar 5, 2018 $2.99N/A (N/A)0 .. 20,0000%00:00 (00:00)Peace & Love GamesPeace & Love Games
321 Lizard Feb 6, 2018 $9.99N/A (N/A)0 .. 20,0000%00:00 (00:00)Brad SmithBrad Smith
322 Creature Romances: Kokonoe Kokoro Mar 2, 2018 $2.99N/A (N/A)20,000 .. 50,0000%00:00 (00:00)NostalgiaSekai Project
323 The Majesty of Colors Remastered Feb 28, 2018 $1.99N/A (N/A)0 .. 20,0000%00:00 (00:00)Future Proof GamesFuture Proof Games
324 Song of Memories (Complete Scenario) Feb 28, 2018 $39.99N/A (N/A)0 .. 20,0000%00:00 (00:00)Future Tech Lab Co.,Ltd.Future Tech Lab Co.,Ltd.
325 Hollow Steps Feb 28, 2018 $14.99N/A (N/A)0 .. 20,0000%00:00 (00:00)QuickSaveSA Industry
326 CHRONO TRIGGER Feb 27, 2018 $14.99N/A (N/A)500,000 .. 1,000,0000%00:00 (00:00)Square EnixSquare Enix
327 Mike Dies Feb 23, 2018 N/AN/A (N/A)0 .. 20,0000%00:00 (00:00)Psydra Games LLCPsydra Games LLC
328 Hunt Down The Freeman Feb 23, 2018 $9.99N/A (N/A)100,000 .. 200,0000%00:00 (00:00)Royal Rudius EntertainmentRoyal Rudius Entertainment
329 Fallen ~Makina and the City of Ruins~ Feb 23, 2018 $14.99N/A (N/A)200,000 .. 500,0000%00:00 (00:00)Another StoryKagura Games
330 Tren0 Feb 22, 2018 $2.99N/A (N/A)50,000 .. 100,0000%00:00 (00:00)BubbleINDIECN
331 Border of her Heart Feb 14, 2018 $0.99N/A (N/A)20,000 .. 50,0000%00:00 (00:00)Tuomo LaineTuomo's games
332 KOEWOTAYORINI SP / 声之寄托SP Feb 13, 2018 $1.99N/A (N/A)0 .. 20,0000%00:00 (00:00)あみそ組Pujia8 Studio, Gamera Game
333 The Little Slime Feb 11, 2018 $6.99N/A (N/A)0 .. 20,0000%00:00 (00:00)SudoTiltSudoTilt
334 Project LUX Feb 2, 2018 $24.99N/A (N/A)20,000 .. 50,0000%00:00 (00:00)Spicy TailsSekai Project
335 Choices: The Game Feb 1, 2018 $1.99N/A (N/A)0 .. 20,0000%00:00 (00:00)FreestewdiosFreestewdios
336 Scavenger SV-4 Jan 31, 2018 $14.99N/A (N/A)20,000 .. 50,0000%00:00 (00:00)Deric RuhlHoroArch
337 The Quiet Sleep Jan 30, 2018 $4.99N/A (N/A)0 .. 20,0000%00:00 (00:00)Why Not GamesWhy Not Games
338 The Sand Man Jan 29, 2018 $2.99N/A (N/A)0 .. 20,0000%00:00 (00:00)Uri GamesPLAYISM
339 LEGRAND LEGACY: Tale of the Fatebounds Jan 24, 2018 $19.99N/A (N/A)0 .. 20,0000%00:00 (00:00)SEMISOFTSEMISOFT
340 KAKUSANKIBOU / 扩散希望 Jan 25, 2018 $2.99N/A (N/A)0 .. 20,0000%00:00 (00:00)あみそ組Pujia8 Studio, Gamera Game
341 Return of Red Riding Hood Enhanced Edition Jan 19, 2018 $2.99N/A (N/A)0 .. 20,0000%00:00 (00:00)NLB projectNLB project
342 The Crooked Man Jan 16, 2018 $2.99N/A (N/A)50,000 .. 100,0000%00:00 (00:00)Uri GamesPLAYISM
343 Choose Wisely Jan 12, 2018 $6.99N/A (N/A)50,000 .. 100,0000%00:00 (00:00)ID CardID Card
344 Artifact Adventure Gaiden Jan 9, 2018 $9.99N/A (N/A)0 .. 20,0000%00:00 (00:00)bluffmanPLAYISM
345 The trial of witch Jan 6, 2018 $3.99N/A (N/A)0 .. 20,0000%00:00 (00:00)YurifYurif, Light of Creators, RMAsia
346 A Sky Full of Stars 仰望夜空的星辰 Dec 15, 2017 $17.99N/A (N/A)20,000 .. 50,0000%00:00 (00:00)MoeNovelMoeNovel
347 Omega Quintet Dec 15, 2017 $29.99N/A (N/A)0 .. 20,0000%00:00 (00:00)Idea FactoryGhostlight LTD
348 Nirvana Pilot Yume Dec 13, 2017 $9.99N/A (N/A)0 .. 20,0000%00:00 (00:00)Dev9kDev9k
349 Puppet Kings Dec 11, 2017 $9.99N/A (N/A)0 .. 20,0000%00:00 (00:00)Timba GamesPlug In Digital
350 Project Cabin Dec 1, 2017 $4.99N/A (N/A)0 .. 20,0000%00:00 (00:00)VincentLTowerVincentLTower
351 Monarch of Greed - Act 1 Nov 29, 2017 $0.99N/A (N/A)0 .. 20,0000%00:00 (00:00)Lled GamesLled Games
352 Beekyr Reloaded Nov 14, 2017 $9.99N/A (N/A)0 .. 20,0000%00:00 (00:00)KaleidoGamesKaleidoGames
353 Far from Noise Nov 14, 2017 $7.99N/A (N/A)0 .. 20,0000%00:00 (00:00)George BatchelorGeorge Batchelor
354 Our End of the World Nov 2, 2017 $5.99N/A (N/A)100,000 .. 200,0000%00:00 (00:00)橘子班, 大好网NVLMaker
355 Little Busters! English Edition Nov 1, 2017 $34.99N/A (N/A)0 .. 20,0000%00:00 (00:00)VisualArts/KeyVisualArts
356 A Tale of Two Kingdoms Oct 31, 2017 $11.99N/A (N/A)50,000 .. 100,0000%00:00 (00:00)Crystal ShardCrystal Shard
357 VOID Oct 31, 2017 $10.99N/A (N/A)0 .. 20,0000%00:00 (00:00)Vifth FloorSekai Project
358 Lost Dimension Oct 30, 2017 $24.99N/A (N/A)20,000 .. 50,0000%00:00 (00:00)FURYU CorporationGhostlight LTD
359 SIMULACRA Oct 26, 2017 $4.99N/A (N/A)200,000 .. 500,0000%00:00 (00:00)Kaigan Games OÜKaigan Games OÜ, Neon Doctrine
360 Nightmare Boy Oct 25, 2017 $9.99N/A (N/A)0 .. 20,0000%00:00 (00:00)The Vanir ProjectBadLand Publishing
361 Winter Wolves Classic Games Collection Oct 25, 2017 $4.99N/A (N/A)0 .. 20,0000%00:00 (00:00)Winter WolvesWinter Wolves
362 Debris Oct 23, 2017 $9.99N/A (N/A)0 .. 20,0000%00:00 (00:00)Moonray StudiosMoonray Studios
363 Molten Armor Oct 20, 2017 $0.99N/A (N/A)0 .. 20,0000%00:00 (00:00)Brutal MuseBrutal Muse
364 How to Fool a Liar King Oct 4, 2017 $11.99N/A (N/A)0 .. 20,0000%00:00 (00:00)ROSEVERTEROSEVERTE
365 Jake's Love Story Oct 5, 2017 $2.99N/A (N/A)20,000 .. 50,0000%00:00 (00:00)Mikołaj SpychałMikołaj Spychał
366 HEADLINER Oct 3, 2017 $4.99N/A (N/A)50,000 .. 100,0000%00:00 (00:00)Unbound CreationsUnbound Creations
367 Saku Saku: Love Blooms with the Cherry Blossoms Oct 2, 2017 $19.99N/A (N/A)50,000 .. 100,0000%00:00 (00:00)PALETTESekai Project
368 Elisa: Seduce the Innkeeper Sep 25, 2017 $2.49N/A (N/A)20,000 .. 50,0000%00:00 (00:00)Neoclassic GamesNeoclassic Games
369 The Coma: Recut Sep 22, 2017 $1.49N/A (N/A)100,000 .. 200,0000%00:00 (00:00)Devespresso GamesHeadup
370 Fight'N Rage Sep 19, 2017 $19.99N/A (N/A)200,000 .. 500,0000%00:00 (00:00)sebagamesdevsebagamesdev
371 Duck Season Sep 14, 2017 $19.99N/A (N/A)100,000 .. 200,0000%00:00 (00:00)Stress Level ZeroStress Level Zero
372 Until the last Jun 24, 2016 $4.99N/A (N/A)0 .. 20,0000%00:00 (00:00)NedoStudioNedoStudio
373 Ne no Kami - The Two Princess Knights of Kyoto Part 2 Sep 7, 2017 $9.99N/A (N/A)20,000 .. 50,0000%00:00 (00:00)Kuro Irodoru YomijiSekai Project
374 Star Story: The Horizon Escape Sep 5, 2017 $8.24N/A (N/A)0 .. 20,0000%00:00 (00:00)EvilCoGamesEvilCoGames
375 Morph Girl Aug 30, 2017 $3.99N/A (N/A)20,000 .. 50,0000%00:00 (00:00)JaydebJaydeb
376 Pinewood Island Aug 25, 2017 $9.99N/A (N/A)0 .. 20,0000%00:00 (00:00)Jaime Scribbles GamesJaime Scribbles Games
377 Hakuoki: Kyoto Winds Aug 24, 2017 $9.99N/A (N/A)50,000 .. 100,0000%00:00 (00:00)Idea Factory, Design FactoryIdea Factory International
378 Raging Loop Aug 23, 2017 $29.99N/A (N/A)100,000 .. 200,0000%00:00 (00:00)KEMCOKEMCO
379 White Day: A Labyrinth Named School Aug 22, 2017 $29.99N/A (N/A)100,000 .. 200,0000%00:00 (00:00)SONNORI CorpPQube, SONNORI Corp
380 Mari and the Black Tower Aug 19, 2017 N/AN/A (N/A)0 .. 20,0000%00:00 (00:00)Joshua KeithJoshua Keith
381 Restoration Aug 18, 2017 FreeN/A (N/A)20,000 .. 50,0000%00:00 (00:00)Team SyukinoTeam Syukino
382 Fidel Dungeon Rescue Aug 1, 2017 $11.99N/A (N/A)50,000 .. 100,0000%00:00 (00:00)Daniel Benmergui, Jeremías Babini, Hernán RozenwasserDaniel Benmergui
383 The Hunting God Jul 28, 2017 $1.99N/A (N/A)20,000 .. 50,0000%00:00 (00:00)Tonguç BodurTonguç Bodur
384 Bai Qu: Hundreds of Melodies Jul 27, 2017 $9.99N/A (N/A)20,000 .. 50,0000%00:00 (00:00)Magenta FactoryMagenta Factory
385 WAGAMAMA HIGH SPEC Jul 26, 2017 $39.99N/A (N/A)50,000 .. 100,0000%00:00 (00:00)madosoftSekai Project
386 Blind Men Jul 25, 2017 $3.99N/A (N/A)0 .. 20,0000%00:00 (00:00)Man-Eater GamesMan-Eater Games
387 The Letter - Horror Visual Novel Jul 24, 2017 $19.99N/A (N/A)100,000 .. 200,0000%00:00 (00:00)Yangyang MobileYangyang Mobile
388 Tell a Demon Jul 13, 2017 $7.99N/A (N/A)0 .. 20,0000%00:00 (00:00)Sun Labyrinth LLCSun Labyrinth LLC
389 Defense of Roman Britain Jul 22, 2017 $3.14N/A (N/A)0 .. 20,0000%00:00 (00:00)First Games InteractiveFirst Games Interactive
390 Lawnmower Game Jul 20, 2017 $1.99N/A (N/A)0 .. 20,0000%00:00 (00:00)Tero Lunkka, Mikko SeppäläTero Lunkka
391 Sorcerer's Dream Jul 13, 2017 $2.99N/A (N/A)20,000 .. 50,0000%00:00 (00:00)Arai Koh Create OfficeYOX-Project
392 Crimson Gray Jul 14, 2017 $9.99N/A (N/A)20,000 .. 50,0000%00:00 (00:00)Sierra LeeSierra Lee
393 √Letter - Root Letter - Jul 7, 2017 $19.99N/A (N/A)20,000 .. 50,0000%00:00 (00:00)DRAGAMI GAMES, LTD.DRAGAMI GAMES, LTD.
394 symeCu8e Jul 4, 2017 $8.99N/A (N/A)0 .. 20,0000%00:00 (00:00)forever8pusforever8pus
395 The Agony Jun 14, 2017 $0.49N/A (N/A)50,000 .. 100,0000%00:00 (00:00)KishMish GamesKishMish Games
396 Symphonic Rain Jun 14, 2017 $39.99N/A (N/A)20,000 .. 50,0000%00:00 (00:00)KOGADO STUDIOKOMODO
397 Gray Skies, Dark Waters Jun 9, 2017 $4.99N/A (N/A)100,000 .. 200,0000%00:00 (00:00)Green Willow Games, LLCGreen Willow Games, LLC
398 After The End: The Harvest Jun 2, 2017 $4.99N/A (N/A)100,000 .. 200,0000%00:00 (00:00)ElushisElushis Music & Gaming
399 Sentience: The Android's Tale Jun 2, 2017 $0.69N/A (N/A)100,000 .. 200,0000%00:00 (00:00)Pilgrim AdventuresGrabTheGames
400 Lamp Head Jun 1, 2017 $19.99N/A (N/A)100,000 .. 200,0000%00:00 (00:00)Atomic Fabrik
401 Super Army of Tentacles 3: The Search for Army of Tentacles 2 May 30, 2017 $5.27N/A (N/A)50,000 .. 100,0000%00:00 (00:00)Stegalosaurus Game DevelopmentStegalosaurus Game Development
402 Embers of Mirrim May 23, 2017 $14.99N/A (N/A)50,000 .. 100,0000%00:00 (00:00)Creative Bytes StudiosCreative Bytes Studios
403 Inner Voices May 10, 2017 $9.99N/A (N/A)0 .. 20,0000%00:00 (00:00)Sigma GamesNo Gravity Games
404 The Fan May 10, 2017 $5.99N/A (N/A)0 .. 20,0000%00:00 (00:00)Ezhaac StudioPlug In Digital
405 Rock, Ken, Bo May 4, 2017 $3.99N/A (N/A)0 .. 20,0000%00:00 (00:00)Xelphyre GamesXelphyre Games
406 Zahalia: The Knights of Galiveth May 1, 2017 $0.99N/A (N/A)20,000 .. 50,0000%00:00 (00:00)LunarCore GamesLunarCore Games
407 Just Ignore Them Apr 28, 2017 $0.67N/A (N/A)100,000 .. 200,0000%00:00 (00:00)StrangaGrabTheGames
408 The Eden of Grisaia Apr 28, 2017 $29.99N/A (N/A)0 .. 20,0000%00:00 (00:00)FrontwingFrontwing USA
409 The Falconers: Moonlight Apr 18, 2017 $9.99N/A (N/A)0 .. 20,0000%00:00 (00:00)Bionic PenguinSekai Project
410 </reality> Apr 18, 2017 $11.99N/A (N/A)0 .. 20,0000%00:00 (00:00)Fancy Fish GamesFancy Fish Games
411 Perfect Plan Mar 30, 2017 $12.99N/A (N/A)20,000 .. 50,0000%00:00 (00:00)Digital UpthrustDigital Upthrust
412 Elisa: the Innkeeper Mar 28, 2017 $6.99N/A (N/A)20,000 .. 50,0000%00:00 (00:00)Neoclassic GamesNeoclassic Games
413 Majotori Mar 28, 2017 $5.99N/A (N/A)50,000 .. 100,0000%00:00 (00:00)MajorariattoMajorariatto
414 Demonheart Mar 24, 2017 $19.99N/A (N/A)20,000 .. 50,0000%00:00 (00:00)Rolling CrownRolling Crown
415 Crisis in the Kremlin Mar 20, 2017 $4.99N/A (N/A)200,000 .. 500,0000%00:00 (00:00)KremlingamesKremlingames
416 Trajectory Mar 10, 2017 $6.99N/A (N/A)0 .. 20,0000%00:00 (00:00)Sky Trail LtdSky Trail Ltd
417 A Foretold Affair Mar 10, 2017 $12.99N/A (N/A)0 .. 20,0000%00:00 (00:00)GB Patch GamesGB Patch Games
418 Bad Dream: Coma Mar 9, 2017 $8.99N/A (N/A)100,000 .. 200,0000%00:00 (00:00)Desert FoxGames Box, Ultimate Games S.A.
419 The Last Cargo Mar 13, 2017 $9.99N/A (N/A)20,000 .. 50,0000%00:00 (00:00)EhnenuEhnenu
420 ChronoClock Feb 28, 2017 $29.99N/A (N/A)0 .. 20,0000%00:00 (00:00)Purple SoftwareSekai Project
421 Open Sorcery Feb 22, 2017 $3.99N/A (N/A)0 .. 20,0000%00:00 (00:00)Abigail CorfmanOpen Sorcery Games
422 Princess Maker Refine Feb 17, 2017 $9.99N/A (N/A)50,000 .. 100,0000%00:00 (00:00)CFK Co., Ltd.Bliss Brain
423 Star Merc Feb 10, 2017 $1.99N/A (N/A)20,000 .. 50,0000%00:00 (00:00)D247 GamesNew Worlds Games
424 The Barbarian and the Subterranean Caves Feb 9, 2017 $0.74N/A (N/A)0 .. 20,0000%00:00 (00:00)NLB projectNLB project
425 Gunmetal Arcadia Feb 7, 2017 $9.99N/A (N/A)0 .. 20,0000%00:00 (00:00)Minor Key GamesMinor Key Games
426 BIGFOOT Jan 31, 2017 $19.99N/A (N/A)1,000,000 .. 2,000,0000%00:00 (00:00)CyberLight Game StudioCyberLight Game Studio
427 A Long Road Home Jan 31, 2017 $0.99N/A (N/A)100,000 .. 200,0000%00:00 (00:00)One Bit StudioOne Bit Studio
428 Ninja Stealth 2 Jan 30, 2017 $4.99N/A (N/A)100,000 .. 200,0000%00:00 (00:00)SC JogosSC Jogos
429 Da Capo 3 R Jan 20, 2017 $39.99N/A (N/A)0 .. 20,0000%00:00 (00:00)CircusMangaGamer
430 Never Forget Me Jan 10, 2017 $14.99N/A (N/A)0 .. 20,0000%00:00 (00:00)Winter WolvesWinter Wolves
431 SoulSet Dec 17, 2016 $16.99N/A (N/A)0 .. 20,0000%00:00 (00:00)NoBreadStudioNoBreadStudio
432 Natural - Beyond Nature - Dec 12, 2016 $9.99N/A (N/A)0 .. 20,0000%00:00 (00:00)Zeiva IncZeiva Inc
433 Please, Don't Touch Anything 3D Dec 7, 2016 $9.99N/A (N/A)100,000 .. 200,0000%00:00 (00:00)Escalation Studios, Four QuartersForwardXP
434 The Night Christmas Ended Dec 4, 2016 $2.99N/A (N/A)0 .. 20,0000%00:00 (00:00)Giant Goblin StudioGiant Goblin Studio
435 Alicemare Nov 21, 2016 $2.99N/A (N/A)100,000 .. 200,0000%00:00 (00:00)△○□× (Miwashiba)PLAYISM
436 Defense Of Greece TD Nov 10, 2016 $5.99N/A (N/A)100,000 .. 200,0000%00:00 (00:00)First Games InteractiveFirst Games Interactive
437 One Night Stand Nov 7, 2016 $2.99N/A (N/A)50,000 .. 100,0000%00:00 (00:00)KinmokuKinmoku
438 Swordlord Jan 23, 2017 $0.99N/A (N/A)0 .. 20,0000%00:00 (00:00)Justin VargheseJustin Varghese
439 CAFE 0 ~The Sleeping Beast~ Oct 29, 2016 $16.99N/A (N/A)20,000 .. 50,0000%00:00 (00:00)ROSEVERTE MYSTERYROSEVERTE
440 Lost in Secular Love Oct 28, 2016 $9.99N/A (N/A)50,000 .. 100,0000%00:00 (00:00)YETU GAMEYETU GAME
441 Killing Room Oct 20, 2016 $14.99N/A (N/A)200,000 .. 500,0000%00:00 (00:00)Alda GamesAlda Games
442 Rose of Winter Oct 17, 2016 $8.99N/A (N/A)0 .. 20,0000%00:00 (00:00)Pillow FightPillow Fight
443 Along the Edge Oct 12, 2016 $13.99N/A (N/A)20,000 .. 50,0000%00:00 (00:00)Nova-boxNova-box
444 Hello Charlotte EP2: Requiem Aeternam Deo Oct 8, 2016 N/AN/A (N/A)50,000 .. 100,0000%00:00 (00:00)etheraneetherane
445 Princess Maker 2 Refine Sep 28, 2016 $19.99N/A (N/A)200,000 .. 500,0000%00:00 (00:00)CFK Co., Ltd.Bliss Brain
446 Gal*Gun: Double Peace Sep 27, 2016 $29.99N/A (N/A)100,000 .. 200,0000%00:00 (00:00)INTI CREATES CO., LTD.PQube
447 Mad Father Sep 22, 2016 $9.99N/A (N/A)200,000 .. 500,0000%00:00 (00:00)senPLAYISM
448 Heirs And Graces Jul 27, 2016 $19.99N/A (N/A)0 .. 20,0000%00:00 (00:00)Winter WolvesWinter Wolves
449 Don't Disturb Aug 30, 2016 $3.99N/A (N/A)100,000 .. 200,0000%00:00 (00:00)Midnight PartyPQube
450 Lost Castle / 失落城堡 Aug 31, 2016 $9.99N/A (N/A)2,000,000 .. 5,000,0000%00:00 (00:00)Hunter StudioNeon Doctrine
451 Sixtieth Kilometer Aug 25, 2016 $0.49N/A (N/A)200,000 .. 500,0000%00:00 (00:00)TalentplaceKishMish Games
452 Mugen Souls Z Aug 25, 2016 $19.99N/A (N/A)0 .. 20,0000%00:00 (00:00)Idea FactoryGhostlight LTD
453 Cat President ~A More Purrfect Union~ Aug 23, 2016 $8.99N/A (N/A)0 .. 20,0000%00:00 (00:00)Oh, a Rock! StudiosOh, a Rock! Studios
454 ACE Academy Aug 22, 2016 $19.99N/A (N/A)100,000 .. 200,0000%00:00 (00:00)PixelFadePixelFade
455 Flowers -Le volume sur printemps- Aug 17, 2016 $19.99N/A (N/A)100,000 .. 200,0000%00:00 (00:00)Innocent GreyJAST USA
456 Archipelago Aug 17, 2016 $0.49N/A (N/A)20,000 .. 50,0000%00:00 (00:00)TortConglomerate 5
457 One Day in London Aug 10, 2016 $9.99N/A (N/A)20,000 .. 50,0000%00:00 (00:00)Owl StudioOwl Studio
458 Grand Pigeon's Duty Aug 5, 2016 $3.99N/A (N/A)0 .. 20,0000%00:00 (00:00)WolfgangIsWolfgangIs
459 Anicon - Animal Complex - Cat's Path Jul 2, 2016 $7.99N/A (N/A)0 .. 20,0000%00:00 (00:00)Zeiva IncZeiva Inc
460 Detective Hank and the Golden Sneeze Jul 29, 2016 $4.99N/A (N/A)0 .. 20,0000%00:00 (00:00)Obsessive Science GamesObsessive Science Games
461 Just Deserts Jul 25, 2016 $9.99N/A (N/A)20,000 .. 50,0000%00:00 (00:00)Vifth FloorSekai Project
462 The Away Team: Lost Exodus Jul 22, 2016 $8N/A (N/A)20,000 .. 50,0000%00:00 (00:00)Underflow StudiostinyBuild
463 Empty Horizons Jul 19, 2016 $2.99N/A (N/A)20,000 .. 50,0000%00:00 (00:00)ebi-himeebi-hime
464 Nurse Love Addiction Jul 8, 2016 $39.99N/A (N/A)0 .. 20,0000%00:00 (00:00)KOGADO STUDIOKOMODO
465 MEMENTO Jul 7, 2016 $5.99N/A (N/A)0 .. 20,0000%00:00 (00:00)CreateLabPLAYISM
466 Cherry Tree High Girls' Fight Jun 13, 2016 $12.99N/A (N/A)0 .. 20,0000%00:00 (00:00)773Sekai Project
467 シルヴァリオ ヴェンデッタ-Verse of Orpheus- Jun 3, 2016 $64.99N/A (N/A)0 .. 20,0000%00:00 (00:00)lightARES Inc.
468 Anima: Gate of Memories Jun 2, 2016 $19.99N/A (N/A)100,000 .. 200,0000%00:00 (00:00)Anima ProjectAnima Publishing
469 The Dope Game May 30, 2016 $4.99N/A (N/A)20,000 .. 50,0000%00:00 (00:00)Tenth&Hess GamesCoaguCo Industries
470 35MM May 27, 2016 $8.99N/A (N/A)200,000 .. 500,0000%00:00 (00:00)Носков СергейНосков Сергей
471 BUDDY May 27, 2016 $9.99N/A (N/A)0 .. 20,0000%00:00 (00:00)HoshkoHoshko
472 A Little Lily Princess May 19, 2016 $14.99N/A (N/A)0 .. 20,0000%00:00 (00:00)HanabiraHanako Games
473 The House in Fata Morgana May 13, 2016 $24.99N/A (N/A)100,000 .. 200,0000%00:00 (00:00)NOVECTMangaGamer
474 Catyph: The Kunci Experiment May 11, 2016 $9.99N/A (N/A)0 .. 20,0000%00:00 (00:00)Simon Says: Play!Simon Says: Play!
475 OZMAFIA!! Apr 29, 2016 $34.99N/A (N/A)20,000 .. 50,0000%00:00 (00:00)Poni-Pachet SYMangaGamer
476 侠客风云传(Tale of Wuxia) Apr 28, 2016 $16.99N/A (N/A)200,000 .. 500,0000%00:00 (00:00)Heluo StudioPhoenix Game
477 Chill the Piro Apr 28, 2016 $1.99N/A (N/A)20,000 .. 50,0000%00:00 (00:00)Sergey Marchenko, Vyacheslav OzolnieksSergey Marchenko
478 C14 Dating Apr 27, 2016 $19.99N/A (N/A)0 .. 20,0000%00:00 (00:00)Winter WolvesWinter Wolves
479 Starlight Vega Apr 14, 2016 $6.99N/A (N/A)20,000 .. 50,0000%00:00 (00:00)Razzart VisualRazzart Visual
480 Solstice Mar 23, 2016 $19.99N/A (N/A)0 .. 20,0000%00:00 (00:00)MoaCubeMoaCube
481 Way of the Samurai 3 Mar 23, 2016 $19.99N/A (N/A)100,000 .. 200,0000%00:00 (00:00)ACQUIRE Corp.Spike Chunsoft Co., Ltd.
482 Borstal Mar 22, 2016 $2.99N/A (N/A)100,000 .. 200,0000%00:00 (00:00)The Secret PieThe Secret Pie
483 Hustle Cat Mar 16, 2016 $19.99N/A (N/A)50,000 .. 100,0000%00:00 (00:00)Date NightoDate Nighto
484 Robo's World: The Zarnok Fortress Mar 7, 2016 $9.99N/A (N/A)0 .. 20,0000%00:00 (00:00)Bluish-Green Productions, Throw Away GamesBluish-Green Games Inc.
485 Karaski: What Goes Up... Mar 2, 2016 $11.99N/A (N/A)50,000 .. 100,0000%00:00 (00:00)Unbound CreationsUnbound Creations
486 Lucy -The Eternity She Wished For- Feb 28, 2016 $9.99N/A (N/A)200,000 .. 500,0000%00:00 (00:00)Modern Visual Arts Laboratory, SEO INSEOKModern Visual Arts Laboratory
487 Drizzlepath: Genie Feb 22, 2016 $3.99N/A (N/A)0 .. 20,0000%00:00 (00:00)Tonguç BodurTonguç Bodur
488 We Know the Devil Feb 15, 2016 $6.66N/A (N/A)0 .. 20,0000%00:00 (00:00)Pillow Fight, Worst Girls GamesPillow Fight
489 Sea Dogs: To Each His Own Feb 12, 2016 $14.99N/A (N/A)200,000 .. 500,0000%00:00 (00:00)BlackMark StudioAkella, Valkyrie Initiative
490 5089: The Action RPG Feb 3, 2016 $7.99N/A (N/A)20,000 .. 50,0000%00:00 (00:00)Phr00t's SoftwarePhr00t's Software
491 Sickness Jan 20, 2016 $9.99N/A (N/A)0 .. 20,0000%00:00 (00:00)ZetsubouUnwonted Studios, Zetsubou
492 Qasir al-Wasat: International Edition Jan 19, 2016 $4.99N/A (N/A)0 .. 20,0000%00:00 (00:00)Aduge StudioZueira Digital
493 A Wild Catgirl Appears! Jan 5, 2016 $2.99N/A (N/A)50,000 .. 100,0000%00:00 (00:00)NewWestGamesNewWestGames
494 Blood Code Dec 28, 2015 $9.99N/A (N/A)100,000 .. 200,0000%00:00 (00:00)ZiX Solutions, Weixi StudioZiX Solutions
495 Super Slam Dunk Touchdown Dec 16, 2015 $15N/A (N/A)0 .. 20,0000%00:00 (00:00)Tipping Goat LLCTipping Goat LLC
496 Turnover Dec 15, 2015 $1.99N/A (N/A)0 .. 20,0000%00:00 (00:00)Long Division LLCLong Division LLC
497 City of Chains Dec 8, 2015 $8.99N/A (N/A)200,000 .. 500,0000%00:00 (00:00)Astronomic GamesNew Reality Games
498 Notrium Sep 1, 2003 $1.99N/A (N/A)50,000 .. 100,0000%00:00 (00:00)Instant KingdomInstant Kingdom
499 BAD END Nov 25, 2015 $2.99N/A (N/A)20,000 .. 50,0000%00:00 (00:00)Arai Koh Create OfficeYOX-Project
500 Angels That Kill - The Final Cut Nov 20, 2015 $4.99N/A (N/A)0 .. 20,0000%00:00 (00:00)Rising Sun InteractiveRising Sun Interactive
501 Highschool Romance Nov 18, 2015 $14.99N/A (N/A)20,000 .. 50,0000%00:00 (00:00)Dharker StudiosDharker Studios
502 G-senjou no Maou - The Devil on G-String Nov 5, 2015 $19.99N/A (N/A)20,000 .. 50,0000%00:00 (00:00)AKABEiSOFT2Sekai Project
503 Mugen Souls Oct 22, 2015 $19.99N/A (N/A)0 .. 20,0000%00:00 (00:00)Idea FactoryGhostlight LTD
504 OASE - Other Age Second Encounter Sep 16, 2010 $19.99N/A (N/A)0 .. 20,0000%00:00 (00:00)Zeiva IncZeiva Inc
505 Weapon of Choice DX Sep 23, 2015 $4.99N/A (N/A)20,000 .. 50,0000%00:00 (00:00)Mommy's Best GamesMommy's Best Games
506 Adventurezator: When Pigs Fly Sep 17, 2015 $19.99N/A (N/A)20,000 .. 50,0000%00:00 (00:00)Pigasus GamesDegica
507 Wild Island Quest Sep 4, 2015 $0.59N/A (N/A)50,000 .. 100,0000%00:00 (00:00)NLB projectNLB project
508 Amnesia: Memories Aug 25, 2015 $9.99N/A (N/A)100,000 .. 200,0000%00:00 (00:00)Idea Factory, Design FactoryIdea Factory International
509 Icebound Aug 5, 2015 $14.99N/A (N/A)0 .. 20,0000%00:00 (00:00)Fastermind GamesFastermind Games
510 Choice Chamber Jul 16, 2015 $9.99N/A (N/A)20,000 .. 50,0000%00:00 (00:00)Studio BeanStudio Bean
511 Area-X Jun 16, 2013 $24.99N/A (N/A)0 .. 20,0000%00:00 (00:00)Zeiva IncZeiva Inc
512 Spandex Force: Champion Rising Jun 24, 2015 $4.99N/A (N/A)20,000 .. 50,0000%00:00 (00:00)KarjaSoftVolens Nolens Games
513 Gaokao.Love.100Days May 30, 2015 $5.99N/A (N/A)100,000 .. 200,0000%00:00 (00:00)高考恋爱委员会, 橘子班NVLMaker
514 The Fruit of Grisaia May 29, 2015 $39.99N/A (N/A)50,000 .. 100,0000%00:00 (00:00)FrontwingFrontwing USA
515 Hyperdimension Neptunia Re;Birth2: Sisters Generation May 29, 2015 $14.99N/A (N/A)200,000 .. 500,0000%00:00 (00:00)Idea Factory, Compile Heart, FelistellaIdea Factory, Idea Factory International
516 Artifact Adventure May 19, 2015 $6.99N/A (N/A)20,000 .. 50,0000%00:00 (00:00)bluffmanPLAYISM
517 Sunrider Academy Apr 15, 2015 $9.99N/A (N/A)50,000 .. 100,0000%00:00 (00:00)Love in SpaceSekai Project
518 Princess Battles Jul 26, 2013 $16.99N/A (N/A)0 .. 20,0000%00:00 (00:00)Nekomura GamesNekomura Games
519 The Confines Of The Crown Apr 3, 2015 $4.49N/A (N/A)20,000 .. 50,0000%00:00 (00:00)Hanako GamesHanako Games
520 Littlewitch Romanesque: Editio Regia Apr 3, 2015 $14.99N/A (N/A)0 .. 20,0000%00:00 (00:00)LittlewitchJAST
521 Princess Evangile All Ages Version Mar 27, 2015 $34.99N/A (N/A)20,000 .. 50,0000%00:00 (00:00)MOONSTONEMangaGamer
522 Please, Don’t Touch Anything Mar 26, 2015 $4.99N/A (N/A)200,000 .. 500,0000%00:00 (00:00)Four QuartersForwardXP
523 ASA: A Space Adventure - Remastered Edition Mar 4, 2015 $9.99N/A (N/A)20,000 .. 50,0000%00:00 (00:00)Simon Says: Play!Simon Says: Play!
524 Agarest: Generations of War 2 Feb 19, 2015 $19.99N/A (N/A)20,000 .. 50,0000%00:00 (00:00)Idea FactoryGhostlight LTD
525 You Are Not a Banana: Better Edition Feb 19, 2015 $0.99N/A (N/A)20,000 .. 50,0000%00:00 (00:00)Brian CullenFluxscopic Ltd.
526 Sword Daughter Feb 13, 2015 $4.99N/A (N/A)20,000 .. 50,0000%00:00 (00:00)HanabiraHanako Games
527 TorqueL Jan 22, 2015 $4.99N/A (N/A)0 .. 20,0000%00:00 (00:00)Nanmo (Takayuki Yanagihara) @ FullPowerSideAttack.com, sanodg (Nobuyoshi Sano), FullPowerSideAttack.comPLAYISM
528 X-note Mar 8, 2011 $14.99N/A (N/A)20,000 .. 50,0000%00:00 (00:00)Zeiva IncZeiva Inc
529 BasketBelle Dec 9, 2014 $4.99N/A (N/A)0 .. 20,0000%00:00 (00:00)Studio BeanStudio Bean
530 Caravaneer 2 Dec 7, 2014 $5.99N/A (N/A)100,000 .. 200,0000%00:00 (00:00)Dmitry ZheltobriukhovDmitry Zheltobriukhov
531 Millennium 5 - The Battle of the Millennium Nov 7, 2014 $1.04N/A (N/A)20,000 .. 50,0000%00:00 (00:00)Aldorlea GamesAldorlea Games
532 Bionic Heart Jul 7, 2009 $9.99N/A (N/A)20,000 .. 50,0000%00:00 (00:00)Winter WolvesWinter Wolves
533 ARK -the lost fairytale- Aug 10, 2014 $2.99N/A (N/A)100,000 .. 200,0000%00:00 (00:00)Narrator, STORIANarrator
534 Spirited Heart Deluxe May 29, 2014 $19.99N/A (N/A)0 .. 20,0000%00:00 (00:00)Winter WolvesWinter Wolves
535 Flower Shop: Summer In Fairbrook Jan 28, 2010 $9.99N/A (N/A)0 .. 20,0000%00:00 (00:00)Winter WolvesWinter Wolves
536 Dark Scavenger May 16, 2014 $4.99N/A (N/A)50,000 .. 100,0000%00:00 (00:00)Psydra Games LLCPsydra Games LLC
537 Cinders May 1, 2014 $19.99N/A (N/A)20,000 .. 50,0000%00:00 (00:00)MoaCubeMoaCube
538 Go! Go! Nippon! ~My First Trip to Japan~ Feb 21, 2014 $9.99N/A (N/A)200,000 .. 500,0000%00:00 (00:00)OVERDRIVEMangaGamer
539 OMG Zombies! Feb 13, 2014 $4.99N/A (N/A)100,000 .. 200,0000%00:00 (00:00)Laughing Jackal LTDGhostlight LTD
540 Roommates Feb 12, 2014 $24.99N/A (N/A)0 .. 20,0000%00:00 (00:00)Winter WolvesWinter Wolves
541 Agarest: Generations of War Feb 4, 2014 $14.99N/A (N/A)100,000 .. 200,0000%00:00 (00:00)Idea FactoryGhostlight LTD
542 Loren The Amazon Princess Jan 15, 2014 $19.99N/A (N/A)50,000 .. 100,0000%00:00 (00:00)Winter WolvesWinter Wolves
543 Way Walkers: University 2 Oct 18, 2013 $5.99N/A (N/A)100,000 .. 200,0000%00:00 (00:00)Hosted GamesHosted Games
544 Nicole Oct 17, 2013 $18.99N/A (N/A)0 .. 20,0000%00:00 (00:00)Winter WolvesWinter Wolves
545 Hate Plus Aug 19, 2013 $9.99N/A (N/A)50,000 .. 100,0000%00:00 (00:00)Love Conquers All GamesLove Conquers All Games
546 Postmortem: One Must Die (Extended Cut) Dec 3, 2013 $2.99N/A (N/A)20,000 .. 50,0000%00:00 (00:00)Unbound CreationsUnbound Creations
547 Soul Gambler Jul 10, 2014 $2.99N/A (N/A)100,000 .. 200,0000%00:00 (00:00)Ilex GamesGamestorming
548 Monster Loves You! Mar 18, 2013 $9.99N/A (N/A)100,000 .. 200,0000%00:00 (00:00)Radial Games Corp, Dejobaan Games, LLCRadial Games Corp
549 7 days with Death Feb 1, 2013 $9.99N/A (N/A)0 .. 20,0000%00:00 (00:00)Narrator, STORIANarrator
550 Primordia Dec 5, 2012 $9.99N/A (N/A)100,000 .. 200,0000%00:00 (00:00)Wormwood StudiosWadjet Eye Games
551 Sugar Cube: Bittersweet Factory Nov 7, 2012 $6.99N/A (N/A)20,000 .. 50,0000%00:00 (00:00)Turtle CreamTurtle Cream
552 STAR WARS Knights of the Old Republic II - The Sith Lords Feb 8, 2005 $9.99N/A (N/A)1,000,000 .. 2,000,0000%00:00 (00:00)Obsidian Entertainment, Aspyr (Mac, Linux, & Windows Update)LucasArts, Lucasfilm, Aspyr (Mac, Linux)
553 Always Remember Me Apr 17, 2011 $17.99N/A (N/A)20,000 .. 50,0000%00:00 (00:00)Winter WolvesWinter Wolves
554 eversion Jun 7, 2010 $4.99N/A (N/A)50,000 .. 100,0000%00:00 (00:00)Zaratustra ProductionsZaratustra Productions
555 Lunnye Devitsy Jul 1, 2009 $4.99N/A (N/A)20,000 .. 50,0000%00:00 (00:00)Boss BaddieBoss Baddie
556 Heileen 1: Sail Away Oct 16, 2008 $5.99N/A (N/A)50,000 .. 100,0000%00:00 (00:00)Winter WolvesWinter Wolves
557 Sword and Fairy 3 Ex Aug 6, 2004 $7.99N/A (N/A)20,000 .. 50,0000%00:00 (00:00)SOFTSTAR TECHNOLOGY(SHANGHAI)SOFTSTAR ENTERTAINMENT
558 正宗台湾十六张麻将3 Jan 18, 2004 $6.99N/A (N/A)0 .. 20,0000%00:00 (00:00)SOFTSTAR ENTERTAINMENTSOFTSTAR ENTERTAINMENT
559 Voodoo Kid Jan 1, 1997 $6.99N/A (N/A)0 .. 20,0000%00:00 (00:00)Infogrames Europe SA, Etranges Libellules StudiosDigital Theory Ltd.
560 Tex Murphy: The Pandora Directive Jun 12, 2014 $9.99N/A (N/A)20,000 .. 50,0000%00:00 (00:00)Access SoftwareNightdive Studios
561 VR Soccer '96 Mar 31, 1996 $9.99N/A (N/A)50,000 .. 100,0000%00:00 (00:00)Gremlin Interactive Ltd.Interplay
562 D: The Game Apr 1, 1995 $5.99N/A (N/A)20,000 .. 50,0000%00:00 (00:00)WARPNightdive Studios, Throwback Entertainment
Overview

Multiple Endings

Games with this tag: 562
Average userscore: N/A%
Average metascore: 74.82%
Average playtime: 00:00
Total copies owned: 153,583,000
Average price: $12.46
Help

Owners: Estimated number of people owning this game. The number might be way too small for new releases and sometimes way too big for games that had free weekend event recently. Read more on About page.

Playtime: Average hours played in total per person that have actually launched this game since March 2009. This time is calculated for the whole lifetime, not for the particular year.

Average score: Average users and metacritic score for all games with this score assigned.

Average playtime: Average lifetime playtime for all games where this data is available.

Games in this genre: Self-explaining - number of games with this tag. Only inculdes games with sales data available.

Total copies owned: Refers to total copies of games with this tag acquired by users for the lifetime. Includes copies sold, downloaded for free and given out.

This number might be too small for recently released games or too big for games that had a free weekend in the last couple of months.

Graphs

Login required.

Please register or log in to see this information.

Login required.

Please register or log in to see this information.